createdAt,value
2022-11-03T02:05:29.264Z,7.98
2022-11-03T02:10:37.771Z,7.92
2022-11-03T02:15:46.517Z,7.85
2022-11-03T02:21:06.589Z,7.81
2022-11-03T02:26:19.102Z,7.76
2022-11-03T02:31:34.985Z,7.71
2022-11-03T02:36:49.002Z,7.53
2022-11-03T02:42:01.710Z,7.40
2022-11-03T02:47:13.445Z,7.32
2022-11-03T02:52:39.193Z,7.33
2022-11-03T02:57:53.762Z,7.28
2022-11-03T03:03:08.275Z,7.31
2022-11-03T03:08:17.909Z,7.38
2022-11-03T03:13:28.384Z,7.42
2022-11-03T03:24:05.451Z,7.33
2022-11-03T03:29:20.317Z,7.37
2022-11-03T03:34:35.060Z,7.31
2022-11-03T03:39:47.173Z,7.22
2022-11-03T03:44:58.716Z,7.17
2022-11-03T03:50:06.822Z,7.14
2022-11-03T03:55:20.259Z,7.09
2022-11-03T04:00:30.467Z,6.95
2022-11-03T04:05:38.116Z,6.84
2022-11-03T04:11:07.235Z,6.74
2022-11-03T04:16:29.887Z,6.66
2022-11-03T04:21:49.874Z,6.54
2022-11-03T04:27:09.030Z,6.56
2022-11-03T04:32:20.787Z,6.56
2022-11-03T04:37:30.313Z,6.55
2022-11-03T04:42:38.392Z,6.49
2022-11-03T04:47:48.496Z,6.50
2022-11-03T04:52:59.945Z,6.56
2022-11-03T04:58:16.096Z,6.66
2022-11-03T05:03:30.076Z,6.70
2022-11-03T05:08:37.657Z,6.67
2022-11-03T05:13:45.314Z,6.64
2022-11-03T05:18:55.648Z,6.64
2022-11-03T05:24:06.387Z,6.66
2022-11-03T05:29:17.067Z,6.81
2022-11-03T05:34:36.924Z,6.68
2022-11-03T05:39:47.812Z,6.64
2022-11-03T05:44:55.493Z,6.61
2022-11-03T05:50:18.820Z,6.68
2022-11-03T05:55:30.862Z,6.69
2022-11-03T06:00:48.121Z,6.73
2022-11-03T06:06:02.122Z,6.78
2022-11-03T06:11:21.591Z,6.78
2022-11-03T06:16:41.497Z,6.72
2022-11-03T06:21:52.861Z,6.66
2022-11-03T06:27:01.027Z,6.57
2022-11-03T06:32:15.374Z,6.51
2022-11-03T06:37:27.696Z,6.37
2022-11-03T06:42:35.854Z,6.21
2022-11-03T06:47:43.696Z,6.14
2022-11-03T06:52:55.644Z,6.29
2022-11-03T06:58:07.818Z,6.45
2022-11-03T07:03:20.883Z,6.48
2022-11-03T07:08:33.746Z,6.50
2022-11-03T07:13:41.440Z,6.59
2022-11-03T07:18:49.525Z,6.80
2022-11-03T07:24:01.904Z,7.10
2022-11-03T07:29:13.344Z,7.39
2022-11-03T07:34:26.876Z,7.65
2022-11-03T07:39:42.229Z,7.91
2022-11-03T07:44:50.708Z,8.13
2022-11-03T07:49:58.992Z,8.35
2022-11-03T07:55:16.222Z,8.62
2022-11-03T08:00:24.027Z,8.86
2022-11-03T08:05:31.686Z,9.13
2022-11-03T08:10:42.364Z,9.39
2022-11-03T08:15:51.807Z,9.61
2022-11-03T08:20:59.436Z,9.80
2022-11-03T08:26:12.838Z,9.97
2022-11-03T08:31:20.567Z,10.11
2022-11-03T08:36:28.157Z,10.27
2022-11-03T08:41:38.341Z,10.42
2022-11-03T08:46:45.880Z,10.52
2022-11-03T08:51:53.455Z,10.63
2022-11-03T08:57:03.693Z,10.79
2022-11-03T09:02:11.547Z,10.92
2022-11-03T09:07:19.291Z,11.01
2022-11-03T09:12:29.395Z,11.14
2022-11-03T09:17:38.538Z,11.26
2022-11-03T09:22:48.621Z,11.38
2022-11-03T09:27:59.652Z,11.53
2022-11-03T09:33:07.664Z,11.78
2022-11-03T09:38:15.924Z,11.76
2022-11-03T09:43:26.252Z,11.92
2022-11-03T09:48:34.715Z,12.02
2022-11-03T09:53:42.747Z,12.13
2022-11-03T09:58:54.792Z,12.25
2022-11-03T10:04:03.724Z,12.32
2022-11-03T10:09:17.520Z,12.40
2022-11-03T10:14:27.702Z,12.44
2022-11-03T10:19:38.724Z,12.46
2022-11-03T10:24:46.277Z,12.49
2022-11-03T10:30:14.435Z,12.56
2022-11-03T10:35:37.972Z,12.59
2022-11-03T10:40:48.139Z,12.61
2022-11-03T10:46:29.698Z,12.76
2022-11-03T10:51:44.932Z,12.85
2022-11-03T10:56:53.929Z,13.01
2022-11-03T11:02:05.560Z,13.19
2022-11-03T11:07:23.892Z,13.37
2022-11-03T11:12:31.451Z,13.48
2022-11-03T11:17:50.168Z,13.64
2022-11-03T11:22:57.685Z,13.75
2022-11-03T11:28:14.939Z,13.94
2022-11-03T11:33:29.160Z,14.07
2022-11-03T11:39:09.198Z,14.23
2022-11-03T11:44:49.972Z,14.37
2022-11-03T11:50:19.116Z,14.51
2022-11-03T11:55:34.206Z,14.62
2022-11-03T12:00:54.187Z,14.75
2022-11-03T12:06:04.870Z,14.80
2022-11-03T12:11:16.754Z,14.86
2022-11-03T12:16:38.275Z,14.95
2022-11-03T12:21:52.738Z,14.97
2022-11-03T12:27:00.964Z,14.95
2022-11-03T12:32:25.583Z,14.99
2022-11-03T12:37:39.958Z,15.05
2022-11-03T12:42:47.602Z,15.07
2022-11-03T12:47:55.226Z,15.08
2022-11-03T12:53:06.907Z,15.10
2022-11-03T12:58:17.964Z,15.06
2022-11-03T13:03:25.559Z,15.07
2022-11-03T13:08:36.205Z,15.10
2022-11-03T13:13:44.476Z,15.10
2022-11-03T13:18:52.211Z,15.10
2022-11-03T13:24:02.335Z,15.12
2022-11-03T13:29:10.543Z,15.07
2022-11-03T13:34:18.100Z,15.03
2022-11-03T13:39:28.395Z,15.04
2022-11-03T13:44:35.969Z,14.99
2022-11-03T13:50:12.200Z,14.95
2022-11-03T14:00:43.677Z,14.90
2022-11-03T14:05:51.242Z,14.86
2022-11-03T14:11:21.358Z,14.86
2022-11-03T14:16:33.478Z,14.82
2022-11-03T14:21:42.870Z,14.81
2022-11-03T14:26:52.983Z,14.81
2022-11-03T14:32:00.616Z,14.78
2022-11-03T14:37:09.036Z,14.76
2022-11-03T14:42:19.256Z,14.72
2022-11-03T14:47:26.813Z,14.67
2022-11-03T14:52:34.292Z,14.65
2022-11-03T14:57:44.373Z,14.65
2022-11-03T15:02:51.900Z,14.65
2022-11-03T15:07:59.443Z,14.67
2022-11-03T15:13:09.989Z,14.71
2022-11-03T15:18:19.152Z,14.70
2022-11-03T15:28:56.930Z,14.69
2022-11-03T15:34:07.752Z,14.65
2022-11-03T15:39:17.940Z,14.58
2022-11-03T15:44:28.098Z,14.50
2022-11-03T15:49:35.841Z,14.45
2022-11-03T15:54:43.360Z,14.40
2022-11-03T15:59:55.353Z,14.39
2022-11-03T16:05:05.403Z,14.33
2022-11-03T16:10:13.060Z,14.31
2022-11-03T16:15:23.171Z,14.30
2022-11-03T16:20:30.760Z,14.27
2022-11-03T16:25:38.284Z,14.21
2022-11-03T16:30:53.839Z,14.20
2022-11-03T16:36:01.796Z,14.15
2022-11-03T16:41:10.284Z,14.13
2022-11-03T16:46:20.368Z,14.15
2022-11-03T16:51:28.295Z,14.12
2022-11-03T16:56:36.194Z,14.08
2022-11-03T17:01:46.505Z,14.09
2022-11-03T17:06:54.131Z,14.13
2022-11-03T17:12:01.824Z,14.08
2022-11-03T17:17:11.996Z,14.08
2022-11-03T17:22:20.403Z,14.03
2022-11-03T17:27:32.432Z,14.03
2022-11-03T17:32:44.702Z,14.07
2022-11-03T17:37:53.027Z,14.11
2022-11-03T17:43:01.011Z,14.19
2022-11-03T17:48:11.769Z,14.27
2022-11-03T17:53:23.555Z,14.33
2022-11-03T17:58:34.418Z,14.34
2022-11-03T18:03:44.848Z,14.37
2022-11-03T18:08:52.651Z,14.37
2022-11-03T18:14:00.719Z,14.36
2022-11-03T18:19:13.930Z,14.38
2022-11-03T18:24:22.919Z,14.36
2022-11-03T18:29:30.413Z,14.36
2022-11-03T18:34:41.934Z,14.39
2022-11-03T18:39:49.582Z,14.37
2022-11-03T18:45:01.488Z,14.37
2022-11-03T18:50:17.110Z,14.39
2022-11-03T18:55:24.762Z,14.33
2022-11-03T19:00:32.765Z,14.34
2022-11-03T19:05:42.891Z,14.34
2022-11-03T19:10:51.124Z,14.31
2022-11-03T19:15:59.604Z,14.29
2022-11-03T19:21:14.754Z,14.28
2022-11-03T19:26:25.992Z,14.23
2022-11-03T19:31:37.513Z,14.17
2022-11-03T19:36:49.139Z,14.15
2022-11-03T19:42:09.105Z,14.12
2022-11-03T19:52:36.896Z,14.09
2022-11-03T19:57:44.404Z,14.04
2022-11-03T20:02:51.921Z,14.04
2022-11-03T20:08:05.388Z,14.08
2022-11-03T20:13:16.563Z,14.08
2022-11-03T20:18:24.076Z,14.07
2022-11-03T20:23:39.346Z,14.07
2022-11-03T20:28:46.987Z,14.04
2022-11-03T20:33:54.488Z,14.02
2022-11-03T20:39:04.865Z,14.00
2022-11-03T20:44:14.481Z,13.95
2022-11-03T20:49:21.970Z,13.90
2022-11-03T20:54:33.271Z,13.92
2022-11-03T20:59:41.376Z,13.87
2022-11-03T21:04:48.935Z,13.85
2022-11-03T21:09:59.043Z,13.86
2022-11-03T21:15:34.544Z,13.81
2022-11-03T21:20:42.057Z,13.79
2022-11-03T21:25:52.648Z,13.79
2022-11-03T21:31:00.218Z,13.76
2022-11-03T21:36:08.569Z,13.74
2022-11-03T21:41:31.151Z,13.73
2022-11-03T21:46:43.615Z,13.69
2022-11-03T21:51:51.109Z,13.67
2022-11-03T21:57:01.208Z,13.67
2022-11-03T22:02:09.904Z,13.64
2022-11-03T22:07:17.394Z,13.65
2022-11-03T22:12:27.460Z,13.68
2022-11-03T22:17:34.979Z,13.68
2022-11-03T22:22:54.937Z,13.68
2022-11-03T22:28:07.824Z,13.71
2022-11-03T22:33:18.558Z,13.69
2022-11-03T22:38:46.143Z,13.70
2022-11-03T22:44:08.691Z,13.71
2022-11-03T22:49:16.172Z,13.69
2022-11-03T22:54:23.798Z,13.68
2022-11-03T22:59:33.924Z,13.68
2022-11-03T23:04:41.448Z,13.68
2022-11-03T23:09:48.970Z,13.65
2022-11-03T23:15:11.546Z,13.65
2022-11-03T23:20:31.561Z,13.60
2022-11-03T23:25:39.037Z,13.56
2022-11-03T23:30:49.113Z,13.56
2022-11-03T23:35:56.588Z,13.52
2022-11-03T23:41:04.987Z,13.50
2022-11-03T23:46:29.494Z,13.49
2022-11-03T23:51:38.344Z,13.46
2022-11-03T23:57:00.229Z,13.43
